sensor_id;sensor_type;location;lat;lon;timestamp;P1;durP1;ratioP1;P2;durP2;ratioP2
4634;SDS011;2330;48.158;11.816;2023-09-18T00:01:17;4.53;;;4.13;;
4634;SDS011;2330;48.158;11.816;2023-09-18T00:03:46;7.37;;;4.47;;
4634;SDS011;2330;48.158;11.816;2023-09-18T00:06:13;4.03;;;3.73;;
4634;SDS011;2330;48.158;11.816;2023-09-18T00:08:40;4.00;;;3.70;;
4634;SDS011;2330;48.158;11.816;2023-09-18T00:11:07;5.40;;;3.57;;
4634;SDS011;2330;48.158;11.816;2023-09-18T00:13:33;4.60;;;4.20;;
4634;SDS011;2330;48.158;11.816;2023-09-18T00:16:00;5.83;;;4.17;;
4634;SDS011;2330;48.158;11.816;2023-09-18T00:18:28;7.33;;;4.07;;
4634;SDS011;2330;48.158;11.816;2023-09-18T00:20:55;5.13;;;4.73;;
4634;SDS011;2330;48.158;11.816;2023-09-18T00:23:22;4.50;;;4.10;;
4634;SDS011;2330;48.158;11.816;2023-09-18T00:25:48;4.70;;;4.30;;
4634;SDS011;2330;48.158;11.816;2023-09-18T00:28:15;5.07;;;4.27;;
4634;SDS011;2330;48.158;11.816;2023-09-18T00:30:46;5.00;;;4.03;;
4634;SDS011;2330;48.158;11.816;2023-09-18T00:33:14;5.97;;;4.37;;
4634;SDS011;2330;48.158;11.816;2023-09-18T00:35:44;4.40;;;4.00;;
4634;SDS011;2330;48.158;11.816;2023-09-18T00:38:12;4.50;;;4.20;;
4634;SDS011;2330;48.158;11.816;2023-09-18T00:40:39;4.70;;;4.37;;
4634;SDS011;2330;48.158;11.816;2023-09-18T00:43:05;5.27;;;4.40;;
4634;SDS011;2330;48.158;11.816;2023-09-18T00:45:32;7.33;;;4.07;;
4634;SDS011;2330;48.158;11.816;2023-09-18T00:48:00;6.83;;;4.70;;
4634;SDS011;2330;48.158;11.816;2023-09-18T00:50:27;7.43;;;5.03;;
4634;SDS011;2330;48.158;11.816;2023-09-18T00:52:54;4.60;;;4.30;;
4634;SDS011;2330;48.158;11.816;2023-09-18T00:55:21;4.10;;;3.80;;
4634;SDS011;2330;48.158;11.816;2023-09-18T00:57:48;5.30;;;4.80;;
4634;SDS011;2330;48.158;11.816;2023-09-18T01:00:14;5.23;;;4.73;;
4634;SDS011;2330;48.158;11.816;2023-09-18T01:02:44;5.10;;;4.60;;
4634;SDS011;2330;48.158;11.816;2023-09-18T01:05:11;11.80;;;4.57;;
4634;SDS011;2330;48.158;11.816;2023-09-18T01:07:38;7.73;;;5.03;;
4634;SDS011;2330;48.158;11.816;2023-09-18T01:10:05;5.07;;;4.67;;
4634;SDS011;2330;48.158;11.816;2023-09-18T01:12:33;5.50;;;4.03;;
4634;SDS011;2330;48.158;11.816;2023-09-18T01:15:14;4.97;;;4.53;;
4634;SDS011;2330;48.158;11.816;2023-09-18T01:17:46;5.87;;;5.37;;
4634;SDS011;2330;48.158;11.816;2023-09-18T01:20:13;5.90;;;4.90;;
4634;SDS011;2330;48.158;11.816;2023-09-18T01:22:40;5.20;;;4.33;;
4634;SDS011;2330;48.158;11.816;2023-09-18T01:25:07;5.30;;;4.80;;
4634;SDS011;2330;48.158;11.816;2023-09-18T01:27:34;5.27;;;4.80;;
4634;SDS011;2330;48.158;11.816;2023-09-18T01:30:01;6.13;;;5.10;;
4634;SDS011;2330;48.158;11.816;2023-09-18T01:32:29;6.50;;;4.63;;
4634;SDS011;2330;48.158;11.816;2023-09-18T01:34:59;8.37;;;4.20;;
4634;SDS011;2330;48.158;11.816;2023-09-18T01:37:29;4.40;;;4.00;;
4634;SDS011;2330;48.158;11.816;2023-09-18T01:39:57;7.27;;;4.30;;
4634;SDS011;2330;48.158;11.816;2023-09-18T01:42:29;4.50;;;4.10;;
4634;SDS011;2330;48.158;11.816;2023-09-18T01:44:56;5.97;;;4.80;;
4634;SDS011;2330;48.158;11.816;2023-09-18T01:47:22;5.47;;;4.33;;
4634;SDS011;2330;48.158;11.816;2023-09-18T01:49:49;5.00;;;4.53;;
4634;SDS011;2330;48.158;11.816;2023-09-18T01:52:17;4.97;;;4.53;;
4634;SDS011;2330;48.158;11.816;2023-09-18T01:54:44;4.20;;;3.80;;
4634;SDS011;2330;48.158;11.816;2023-09-18T01:57:11;5.30;;;4.20;;
4634;SDS011;2330;48.158;11.816;2023-09-18T01:59:38;3.87;;;3.57;;
4634;SDS011;2330;48.158;11.816;2023-09-18T02:02:06;3.93;;;3.63;;
4634;SDS011;2330;48.158;11.816;2023-09-18T02:04:36;4.30;;;4.00;;
4634;SDS011;2330;48.158;11.816;2023-09-18T02:07:23;4.80;;;4.03;;
4634;SDS011;2330;48.158;11.816;2023-09-18T02:09:50;9.07;;;4.03;;
4634;SDS011;2330;48.158;11.816;2023-09-18T02:12:16;4.93;;;4.40;;
4634;SDS011;2330;48.158;11.816;2023-09-18T02:14:47;7.10;;;4.30;;
4634;SDS011;2330;48.158;11.816;2023-09-18T02:17:13;4.00;;;3.70;;
4634;SDS011;2330;48.158;11.816;2023-09-18T02:19:40;3.80;;;3.50;;
4634;SDS011;2330;48.158;11.816;2023-09-18T02:22:07;4.90;;;3.37;;
4634;SDS011;2330;48.158;11.816;2023-09-18T02:24:34;4.90;;;4.40;;
4634;SDS011;2330;48.158;11.816;2023-09-18T02:27:03;3.83;;;3.50;;
4634;SDS011;2330;48.158;11.816;2023-09-18T02:29:30;4.70;;;4.30;;
4634;SDS011;2330;48.158;11.816;2023-09-18T02:31:57;5.17;;;3.43;;
4634;SDS011;2330;48.158;11.816;2023-09-18T02:34:24;4.23;;;3.83;;
4634;SDS011;2330;48.158;11.816;2023-09-18T02:36:51;4.93;;;4.23;;
4634;SDS011;2330;48.158;11.816;2023-09-18T02:39:18;4.73;;;3.90;;
4634;SDS011;2330;48.158;11.816;2023-09-18T02:41:45;4.53;;;4.23;;
4634;SDS011;2330;48.158;11.816;2023-09-18T02:44:11;5.50;;;4.00;;
4634;SDS011;2330;48.158;11.816;2023-09-18T02:46:38;5.50;;;4.73;;
4634;SDS011;2330;48.158;11.816;2023-09-18T02:49:06;8.50;;;3.73;;
4634;SDS011;2330;48.158;11.816;2023-09-18T02:51:32;4.37;;;4.07;;
4634;SDS011;2330;48.158;11.816;2023-09-18T02:53:59;5.10;;;4.60;;
4634;SDS011;2330;48.158;11.816;2023-09-18T02:56:26;5.50;;;4.23;;
4634;SDS011;2330;48.158;11.816;2023-09-18T02:58:53;4.53;;;4.10;;
4634;SDS011;2330;48.158;11.816;2023-09-18T03:01:20;4.53;;;4.13;;
4634;SDS011;2330;48.158;11.816;2023-09-18T03:03:46;4.20;;;3.90;;
4634;SDS011;2330;48.158;11.816;2023-09-18T03:06:13;7.83;;;4.77;;
4634;SDS011;2330;48.158;11.816;2023-09-18T03:08:40;7.90;;;5.30;;
4634;SDS011;2330;48.158;11.816;2023-09-18T03:11:10;10.30;;;4.20;;
4634;SDS011;2330;48.158;11.816;2023-09-18T03:13:42;4.03;;;3.73;;
4634;SDS011;2330;48.158;11.816;2023-09-18T03:16:13;6.77;;;3.97;;
4634;SDS011;2330;48.158;11.816;2023-09-18T03:18:40;4.70;;;4.10;;
4634;SDS011;2330;48.158;11.816;2023-09-18T03:21:07;5.63;;;4.90;;
4634;SDS011;2330;48.158;11.816;2023-09-18T03:23:34;5.33;;;4.07;;
4634;SDS011;2330;48.158;11.816;2023-09-18T03:26:01;7.00;;;4.10;;
4634;SDS011;2330;48.158;11.816;2023-09-18T03:28:28;5.80;;;4.50;;
4634;SDS011;2330;48.158;11.816;2023-09-18T03:30:55;6.93;;;4.00;;
4634;SDS011;2330;48.158;11.816;2023-09-18T03:33:23;5.40;;;4.23;;
4634;SDS011;2330;48.158;11.816;2023-09-18T03:35:51;4.13;;;3.70;;
4634;SDS011;2330;48.158;11.816;2023-09-18T03:38:21;4.40;;;4.00;;
4634;SDS011;2330;48.158;11.816;2023-09-18T03:40:48;6.53;;;4.57;;
4634;SDS011;2330;48.158;11.816;2023-09-18T03:43:15;6.00;;;4.13;;
4634;SDS011;2330;48.158;11.816;2023-09-18T03:45:42;4.43;;;4.10;;
4634;SDS011;2330;48.158;11.816;2023-09-18T03:48:09;5.70;;;3.73;;
4634;SDS011;2330;48.158;11.816;2023-09-18T03:50:36;4.30;;;3.90;;
4634;SDS011;2330;48.158;11.816;2023-09-18T03:53:03;6.00;;;4.00;;
4634;SDS011;2330;48.158;11.816;2023-09-18T03:55:30;6.23;;;3.60;;
4634;SDS011;2330;48.158;11.816;2023-09-18T03:57:57;6.53;;;3.93;;
4634;SDS011;2330;48.158;11.816;2023-09-18T04:00:24;7.60;;;4.50;;
4634;SDS011;2330;48.158;11.816;2023-09-18T04:02:51;9.77;;;3.20;;
4634;SDS011;2330;48.158;11.816;2023-09-18T04:05:18;4.43;;;4.03;;
4634;SDS011;2330;48.158;11.816;2023-09-18T04:07:45;4.10;;;3.70;;
4634;SDS011;2330;48.158;11.816;2023-09-18T04:10:13;6.30;;;4.10;;
4634;SDS011;2330;48.158;11.816;2023-09-18T04:12:51;4.53;;;3.30;;
4634;SDS011;2330;48.158;11.816;2023-09-18T04:15:18;5.80;;;3.23;;
4634;SDS011;2330;48.158;11.816;2023-09-18T04:17:46;8.10;;;4.20;;
4634;SDS011;2330;48.158;11.816;2023-09-18T04:20:14;5.90;;;3.73;;
4634;SDS011;2330;48.158;11.816;2023-09-18T04:22:42;5.23;;;3.70;;
4634;SDS011;2330;48.158;11.816;2023-09-18T04:25:11;5.40;;;4.20;;
4634;SDS011;2330;48.158;11.816;2023-09-18T04:27:38;3.83;;;3.40;;
4634;SDS011;2330;48.158;11.816;2023-09-18T04:30:06;6.37;;;3.83;;
4634;SDS011;2330;48.158;11.816;2023-09-18T04:32:36;7.07;;;3.90;;
4634;SDS011;2330;48.158;11.816;2023-09-18T04:35:04;6.40;;;4.53;;
4634;SDS011;2330;48.158;11.816;2023-09-18T04:37:33;4.07;;;3.40;;
4634;SDS011;2330;48.158;11.816;2023-09-18T04:40:05;6.43;;;3.37;;
4634;SDS011;2330;48.158;11.816;2023-09-18T04:42:36;5.70;;;3.27;;
4634;SDS011;2330;48.158;11.816;2023-09-18T04:45:04;5.90;;;3.80;;
4634;SDS011;2330;48.158;11.816;2023-09-18T04:47:31;6.60;;;3.70;;
4634;SDS011;2330;48.158;11.816;2023-09-18T04:49:58;9.67;;;4.83;;
4634;SDS011;2330;48.158;11.816;2023-09-18T04:52:25;4.07;;;3.47;;
4634;SDS011;2330;48.158;11.816;2023-09-18T04:54:52;5.63;;;4.10;;
4634;SDS011;2330;48.158;11.816;2023-09-18T04:57:20;5.00;;;3.33;;
4634;SDS011;2330;48.158;11.816;2023-09-18T04:59:48;7.93;;;4.40;;
4634;SDS011;2330;48.158;11.816;2023-09-18T05:02:31;9.37;;;4.17;;
4634;SDS011;2330;48.158;11.816;2023-09-18T05:04:58;5.20;;;4.60;;
4634;SDS011;2330;48.158;11.816;2023-09-18T05:07:25;4.63;;;3.80;;
4634;SDS011;2330;48.158;11.816;2023-09-18T05:09:52;7.20;;;4.20;;
4634;SDS011;2330;48.158;11.816;2023-09-18T05:12:19;6.53;;;4.67;;
4634;SDS011;2330;48.158;11.816;2023-09-18T05:14:45;9.43;;;4.30;;
4634;SDS011;2330;48.158;11.816;2023-09-18T05:17:16;6.00;;;4.50;;
4634;SDS011;2330;48.158;11.816;2023-09-18T05:19:43;5.73;;;4.67;;
4634;SDS011;2330;48.158;11.816;2023-09-18T05:22:10;5.27;;;4.77;;
4634;SDS011;2330;48.158;11.816;2023-09-18T05:24:38;6.00;;;4.70;;
4634;SDS011;2330;48.158;11.816;2023-09-18T05:27:05;9.37;;;4.57;;
4634;SDS011;2330;48.158;11.816;2023-09-18T05:29:34;7.00;;;4.73;;
4634;SDS011;2330;48.158;11.816;2023-09-18T05:32:03;8.13;;;4.63;;
4634;SDS011;2330;48.158;11.816;2023-09-18T05:34:30;9.60;;;4.80;;
4634;SDS011;2330;48.158;11.816;2023-09-18T05:36:58;23.23;;;4.57;;
4634;SDS011;2330;48.158;11.816;2023-09-18T05:39:25;15.13;;;4.57;;
4634;SDS011;2330;48.158;11.816;2023-09-18T05:41:52;7.27;;;4.33;;
4634;SDS011;2330;48.158;11.816;2023-09-18T05:44:19;7.50;;;3.70;;
4634;SDS011;2330;48.158;11.816;2023-09-18T05:46:45;11.90;;;4.57;;
4634;SDS011;2330;48.158;11.816;2023-09-18T05:49:12;6.10;;;4.07;;
4634;SDS011;2330;48.158;11.816;2023-09-18T05:51:39;9.60;;;5.20;;
4634;SDS011;2330;48.158;11.816;2023-09-18T05:54:06;13.23;;;4.10;;
4634;SDS011;2330;48.158;11.816;2023-09-18T05:56:33;6.80;;;4.00;;
4634;SDS011;2330;48.158;11.816;2023-09-18T05:59:00;11.23;;;4.17;;
4634;SDS011;2330;48.158;11.816;2023-09-18T06:01:27;4.60;;;3.87;;
4634;SDS011;2330;48.158;11.816;2023-09-18T06:03:55;5.80;;;4.10;;
4634;SDS011;2330;48.158;11.816;2023-09-18T06:06:22;5.73;;;3.43;;
4634;SDS011;2330;48.158;11.816;2023-09-18T06:08:48;9.33;;;3.70;;
4634;SDS011;2330;48.158;11.816;2023-09-18T06:11:15;7.30;;;3.60;;
4634;SDS011;2330;48.158;11.816;2023-09-18T06:13:42;6.37;;;3.43;;
4634;SDS011;2330;48.158;11.816;2023-09-18T06:16:09;4.03;;;3.63;;
4634;SDS011;2330;48.158;11.816;2023-09-18T06:18:36;4.00;;;2.83;;
4634;SDS011;2330;48.158;11.816;2023-09-18T06:21:05;7.10;;;3.30;;
4634;SDS011;2330;48.158;11.816;2023-09-18T06:23:32;11.20;;;3.93;;
4634;SDS011;2330;48.158;11.816;2023-09-18T06:25:59;4.00;;;3.43;;
4634;SDS011;2330;48.158;11.816;2023-09-18T06:28:26;7.30;;;4.07;;
4634;SDS011;2330;48.158;11.816;2023-09-18T06:30:53;5.37;;;3.40;;
4634;SDS011;2330;48.158;11.816;2023-09-18T06:33:21;6.27;;;3.80;;
4634;SDS011;2330;48.158;11.816;2023-09-18T06:35:48;4.90;;;4.10;;
4634;SDS011;2330;48.158;11.816;2023-09-18T06:38:15;11.60;;;4.00;;
4634;SDS011;2330;48.158;11.816;2023-09-18T06:40:42;7.87;;;3.67;;
4634;SDS011;2330;48.158;11.816;2023-09-18T06:43:08;5.83;;;2.93;;
4634;SDS011;2330;48.158;11.816;2023-09-18T06:45:35;5.53;;;4.10;;
4634;SDS011;2330;48.158;11.816;2023-09-18T06:48:04;5.17;;;3.90;;
4634;SDS011;2330;48.158;11.816;2023-09-18T06:50:31;8.47;;;4.13;;
4634;SDS011;2330;48.158;11.816;2023-09-18T06:52:58;8.80;;;3.63;;
4634;SDS011;2330;48.158;11.816;2023-09-18T06:55:25;3.43;;;2.90;;
4634;SDS011;2330;48.158;11.816;2023-09-18T06:57:52;4.33;;;3.93;;
4634;SDS011;2330;48.158;11.816;2023-09-18T07:00:19;4.20;;;3.00;;
4634;SDS011;2330;48.158;11.816;2023-09-18T07:02:47;6.30;;;4.30;;
4634;SDS011;2330;48.158;11.816;2023-09-18T07:05:16;8.33;;;3.60;;
4634;SDS011;2330;48.158;11.816;2023-09-18T07:07:43;3.83;;;3.43;;
4634;SDS011;2330;48.158;11.816;2023-09-18T07:10:10;4.67;;;3.70;;
4634;SDS011;2330;48.158;11.816;2023-09-18T07:12:38;12.63;;;4.10;;
4634;SDS011;2330;48.158;11.816;2023-09-18T07:15:05;7.00;;;3.87;;
4634;SDS011;2330;48.158;11.816;2023-09-18T07:17:33;11.03;;;3.77;;
4634;SDS011;2330;48.158;11.816;2023-09-18T07:20:01;7.90;;;3.50;;
4634;SDS011;2330;48.158;11.816;2023-09-18T07:22:36;7.23;;;3.70;;
4634;SDS011;2330;48.158;11.816;2023-09-18T07:25:02;8.80;;;3.57;;
4634;SDS011;2330;48.158;11.816;2023-09-18T07:27:30;8.13;;;3.30;;
4634;SDS011;2330;48.158;11.816;2023-09-18T07:29:57;6.87;;;3.70;;
4634;SDS011;2330;48.158;11.816;2023-09-18T07:32:24;4.00;;;3.40;;
4634;SDS011;2330;48.158;11.816;2023-09-18T07:35:04;5.67;;;3.67;;
4634;SDS011;2330;48.158;11.816;2023-09-18T07:37:31;14.90;;;3.80;;
4634;SDS011;2330;48.158;11.816;2023-09-18T07:39:58;6.47;;;3.67;;
4634;SDS011;2330;48.158;11.816;2023-09-18T07:42:25;4.30;;;2.73;;
4634;SDS011;2330;48.158;11.816;2023-09-18T07:44:53;6.83;;;3.03;;
4634;SDS011;2330;48.158;11.816;2023-09-18T07:47:23;11.13;;;2.63;;
4634;SDS011;2330;48.158;11.816;2023-09-18T07:49:49;7.10;;;3.60;;
4634;SDS011;2330;48.158;11.816;2023-09-18T07:52:17;6.30;;;3.07;;
4634;SDS011;2330;48.158;11.816;2023-09-18T07:54:44;5.90;;;3.67;;
4634;SDS011;2330;48.158;11.816;2023-09-18T07:57:10;11.60;;;3.70;;
4634;SDS011;2330;48.158;11.816;2023-09-18T07:59:37;7.00;;;3.43;;
4634;SDS011;2330;48.158;11.816;2023-09-18T08:02:08;15.57;;;4.43;;
4634;SDS011;2330;48.158;11.816;2023-09-18T08:04:36;6.97;;;4.10;;
4634;SDS011;2330;48.158;11.816;2023-09-18T08:07:03;4.63;;;3.40;;
4634;SDS011;2330;48.158;11.816;2023-09-18T08:09:33;3.70;;;3.40;;
4634;SDS011;2330;48.158;11.816;2023-09-18T08:12:03;10.93;;;3.53;;
4634;SDS011;2330;48.158;11.816;2023-09-18T08:14:31;11.43;;;3.63;;
4634;SDS011;2330;48.158;11.816;2023-09-18T08:16:58;7.50;;;3.37;;
4634;SDS011;2330;48.158;11.816;2023-09-18T08:19:26;8.20;;;3.03;;
4634;SDS011;2330;48.158;11.816;2023-09-18T08:21:53;3.60;;;2.63;;
4634;SDS011;2330;48.158;11.816;2023-09-18T08:24:22;7.13;;;3.33;;
4634;SDS011;2330;48.158;11.816;2023-09-18T08:26:49;6.27;;;3.00;;
4634;SDS011;2330;48.158;11.816;2023-09-18T08:29:16;10.37;;;3.40;;
4634;SDS011;2330;48.158;11.816;2023-09-18T08:31:44;5.77;;;3.60;;
4634;SDS011;2330;48.158;11.816;2023-09-18T08:34:11;4.77;;;3.37;;
4634;SDS011;2330;48.158;11.816;2023-09-18T08:36:38;8.17;;;3.17;;
4634;SDS011;2330;48.158;11.816;2023-09-18T08:39:04;8.23;;;3.40;;
4634;SDS011;2330;48.158;11.816;2023-09-18T08:41:38;7.97;;;3.70;;
4634;SDS011;2330;48.158;11.816;2023-09-18T08:44:08;6.83;;;3.40;;
4634;SDS011;2330;48.158;11.816;2023-09-18T08:46:36;4.03;;;3.03;;
4634;SDS011;2330;48.158;11.816;2023-09-18T08:49:04;5.80;;;3.50;;
4634;SDS011;2330;48.158;11.816;2023-09-18T08:51:33;7.27;;;3.10;;
4634;SDS011;2330;48.158;11.816;2023-09-18T08:54:01;11.63;;;3.97;;
4634;SDS011;2330;48.158;11.816;2023-09-18T08:56:30;6.73;;;3.30;;
4634;SDS011;2330;48.158;11.816;2023-09-18T08:58:58;18.53;;;4.10;;
4634;SDS011;2330;48.158;11.816;2023-09-18T09:01:26;11.40;;;3.37;;
4634;SDS011;2330;48.158;11.816;2023-09-18T09:03:53;10.13;;;3.63;;
4634;SDS011;2330;48.158;11.816;2023-09-18T09:06:19;13.33;;;4.03;;
4634;SDS011;2330;48.158;11.816;2023-09-18T09:08:46;13.83;;;3.70;;
4634;SDS011;2330;48.158;11.816;2023-09-18T09:11:13;9.43;;;3.47;;
4634;SDS011;2330;48.158;11.816;2023-09-18T09:13:40;9.17;;;3.57;;
4634;SDS011;2330;48.158;11.816;2023-09-18T09:16:12;6.47;;;3.40;;
4634;SDS011;2330;48.158;11.816;2023-09-18T09:18:49;3.73;;;3.37;;
4634;SDS011;2330;48.158;11.816;2023-09-18T09:21:18;8.13;;;3.47;;
4634;SDS011;2330;48.158;11.816;2023-09-18T09:23:50;7.60;;;3.73;;
4634;SDS011;2330;48.158;11.816;2023-09-18T09:26:22;4.70;;;3.33;;
4634;SDS011;2330;48.158;11.816;2023-09-18T09:28:50;4.17;;;3.20;;
4634;SDS011;2330;48.158;11.816;2023-09-18T09:31:30;10.13;;;3.53;;
4634;SDS011;2330;48.158;11.816;2023-09-18T09:33:57;8.13;;;3.70;;
4634;SDS011;2330;48.158;11.816;2023-09-18T09:36:25;5.77;;;3.30;;
4634;SDS011;2330;48.158;11.816;2023-09-18T09:38:55;8.43;;;4.03;;
4634;SDS011;2330;48.158;11.816;2023-09-18T09:41:24;9.90;;;4.30;;
4634;SDS011;2330;48.158;11.816;2023-09-18T09:43:55;10.13;;;4.10;;
4634;SDS011;2330;48.158;11.816;2023-09-18T09:46:23;5.77;;;4.33;;
4634;SDS011;2330;48.158;11.816;2023-09-18T09:49:02;8.50;;;3.63;;
4634;SDS011;2330;48.158;11.816;2023-09-18T09:51:31;5.50;;;3.07;;
4634;SDS011;2330;48.158;11.816;2023-09-18T09:53:59;6.87;;;3.90;;
4634;SDS011;2330;48.158;11.816;2023-09-18T09:56:42;10.90;;;4.70;;
4634;SDS011;2330;48.158;11.816;2023-09-18T09:59:18;7.43;;;3.73;;
4634;SDS011;2330;48.158;11.816;2023-09-18T10:01:46;8.53;;;3.90;;
4634;SDS011;2330;48.158;11.816;2023-09-18T10:04:16;6.03;;;3.63;;
4634;SDS011;2330;48.158;11.816;2023-09-18T10:06:52;8.47;;;4.03;;
4634;SDS011;2330;48.158;11.816;2023-09-18T10:09:25;6.80;;;3.40;;
4634;SDS011;2330;48.158;11.816;2023-09-18T10:11:55;9.00;;;4.10;;
4634;SDS011;2330;48.158;11.816;2023-09-18T10:16:57;7.50;;;3.97;;
4634;SDS011;2330;48.158;11.816;2023-09-18T10:19:42;11.27;;;3.60;;
4634;SDS011;2330;48.158;11.816;2023-09-18T10:27:36;16.73;;;4.50;;
4634;SDS011;2330;48.158;11.816;2023-09-18T10:30:07;10.73;;;4.20;;
4634;SDS011;2330;48.158;11.816;2023-09-18T10:32:38;9.50;;;3.57;;
4634;SDS011;2330;48.158;11.816;2023-09-18T10:35:07;5.77;;;3.27;;
4634;SDS011;2330;48.158;11.816;2023-09-18T10:37:34;5.43;;;3.20;;
4634;SDS011;2330;48.158;11.816;2023-09-18T10:40:04;8.17;;;3.73;;
4634;SDS011;2330;48.158;11.816;2023-09-18T10:42:39;11.73;;;4.20;;
4634;SDS011;2330;48.158;11.816;2023-09-18T10:45:08;9.83;;;4.17;;
4634;SDS011;2330;48.158;11.816;2023-09-18T10:47:40;7.00;;;3.80;;
4634;SDS011;2330;48.158;11.816;2023-09-18T10:50:11;6.07;;;4.20;;
4634;SDS011;2330;48.158;11.816;2023-09-18T10:52:42;15.47;;;4.43;;
4634;SDS011;2330;48.158;11.816;2023-09-18T10:55:13;15.67;;;3.70;;
4634;SDS011;2330;48.158;11.816;2023-09-18T10:57:50;8.90;;;4.47;;
4634;SDS011;2330;48.158;11.816;2023-09-18T11:00:22;6.50;;;3.07;;
4634;SDS011;2330;48.158;11.816;2023-09-18T11:02:51;11.67;;;3.33;;
4634;SDS011;2330;48.158;11.816;2023-09-18T11:05:29;14.00;;;3.97;;
4634;SDS011;2330;48.158;11.816;2023-09-18T11:13:37;10.30;;;3.87;;
4634;SDS011;2330;48.158;11.816;2023-09-18T11:16:14;6.20;;;2.77;;
4634;SDS011;2330;48.158;11.816;2023-09-18T11:19:08;7.37;;;3.80;;
4634;SDS011;2330;48.158;11.816;2023-09-18T11:21:40;12.73;;;3.17;;
4634;SDS011;2330;48.158;11.816;2023-09-18T11:24:07;15.90;;;3.70;;
4634;SDS011;2330;48.158;11.816;2023-09-18T11:26:43;15.83;;;2.90;;
4634;SDS011;2330;48.158;11.816;2023-09-18T11:29:16;10.20;;;3.70;;
4634;SDS011;2330;48.158;11.816;2023-09-18T11:31:53;9.20;;;4.00;;
4634;SDS011;2330;48.158;11.816;2023-09-18T11:36:49;12.67;;;3.80;;
4634;SDS011;2330;48.158;11.816;2023-09-18T11:39:32;12.77;;;3.47;;
4634;SDS011;2330;48.158;11.816;2023-09-18T11:44:36;11.47;;;4.87;;
4634;SDS011;2330;48.158;11.816;2023-09-18T11:47:09;14.17;;;4.90;;
4634;SDS011;2330;48.158;11.816;2023-09-18T11:49:47;8.03;;;2.90;;
4634;SDS011;2330;48.158;11.816;2023-09-18T11:52:19;7.27;;;2.90;;
4634;SDS011;2330;48.158;11.816;2023-09-18T11:54:47;15.50;;;3.57;;
4634;SDS011;2330;48.158;11.816;2023-09-18T11:57:14;11.60;;;3.33;;
4634;SDS011;2330;48.158;11.816;2023-09-18T11:59:42;10.53;;;3.53;;
4634;SDS011;2330;48.158;11.816;2023-09-18T12:02:11;17.33;;;3.23;;
4634;SDS011;2330;48.158;11.816;2023-09-18T12:04:47;16.53;;;4.67;;
4634;SDS011;2330;48.158;11.816;2023-09-18T12:07:14;9.53;;;3.57;;
4634;SDS011;2330;48.158;11.816;2023-09-18T12:09:41;15.37;;;3.53;;
4634;SDS011;2330;48.158;11.816;2023-09-18T12:12:08;9.23;;;2.63;;
4634;SDS011;2330;48.158;11.816;2023-09-18T12:14:36;11.90;;;2.70;;
4634;SDS011;2330;48.158;11.816;2023-09-18T12:17:08;10.20;;;2.50;;
4634;SDS011;2330;48.158;11.816;2023-09-18T12:19:34;13.77;;;2.73;;
4634;SDS011;2330;48.158;11.816;2023-09-18T12:22:01;9.73;;;2.83;;
4634;SDS011;2330;48.158;11.816;2023-09-18T12:24:30;14.43;;;3.07;;
4634;SDS011;2330;48.158;11.816;2023-09-18T12:26:58;6.60;;;2.53;;
4634;SDS011;2330;48.158;11.816;2023-09-18T12:29:25;3.67;;;1.60;;
4634;SDS011;2330;48.158;11.816;2023-09-18T12:31:52;12.97;;;2.70;;
4634;SDS011;2330;48.158;11.816;2023-09-18T12:34:19;6.33;;;2.10;;
4634;SDS011;2330;48.158;11.816;2023-09-18T12:36:50;7.73;;;1.70;;
4634;SDS011;2330;48.158;11.816;2023-09-18T12:39:17;9.37;;;1.90;;
4634;SDS011;2330;48.158;11.816;2023-09-18T12:41:47;9.37;;;2.30;;
4634;SDS011;2330;48.158;11.816;2023-09-18T12:44:14;3.03;;;1.70;;
4634;SDS011;2330;48.158;11.816;2023-09-18T12:46:43;4.00;;;1.50;;
4634;SDS011;2330;48.158;11.816;2023-09-18T12:49:20;5.90;;;1.63;;
4634;SDS011;2330;48.158;11.816;2023-09-18T12:51:56;5.33;;;1.50;;
4634;SDS011;2330;48.158;11.816;2023-09-18T12:54:49;13.33;;;2.00;;
4634;SDS011;2330;48.158;11.816;2023-09-18T12:57:20;5.53;;;1.90;;
4634;SDS011;2330;48.158;11.816;2023-09-18T12:59:47;7.80;;;2.10;;
4634;SDS011;2330;48.158;11.816;2023-09-18T13:02:17;7.30;;;1.80;;
4634;SDS011;2330;48.158;11.816;2023-09-18T13:04:51;3.10;;;1.87;;
4634;SDS011;2330;48.158;11.816;2023-09-18T13:07:19;3.17;;;1.63;;
4634;SDS011;2330;48.158;11.816;2023-09-18T13:12:41;9.20;;;2.20;;
4634;SDS011;2330;48.158;11.816;2023-09-18T13:15:08;4.20;;;1.90;;
4634;SDS011;2330;48.158;11.816;2023-09-18T13:17:39;8.80;;;2.00;;
4634;SDS011;2330;48.158;11.816;2023-09-18T13:20:18;20.73;;;2.60;;
4634;SDS011;2330;48.158;11.816;2023-09-18T13:22:54;8.33;;;1.60;;
4634;SDS011;2330;48.158;11.816;2023-09-18T13:25:22;2.70;;;1.57;;
4634;SDS011;2330;48.158;11.816;2023-09-18T13:27:51;5.03;;;1.30;;
4634;SDS011;2330;48.158;11.816;2023-09-18T13:30:20;4.07;;;1.40;;
4634;SDS011;2330;48.158;11.816;2023-09-18T13:32:51;2.93;;;1.20;;
4634;SDS011;2330;48.158;11.816;2023-09-18T13:35:28;4.37;;;1.30;;
4634;SDS011;2330;48.158;11.816;2023-09-18T13:37:55;4.20;;;1.07;;
4634;SDS011;2330;48.158;11.816;2023-09-18T13:40:22;2.00;;;1.20;;
4634;SDS011;2330;48.158;11.816;2023-09-18T13:42:49;3.63;;;1.20;;
4634;SDS011;2330;48.158;11.816;2023-09-18T13:45:15;1.83;;;1.40;;
4634;SDS011;2330;48.158;11.816;2023-09-18T13:47:42;5.47;;;1.20;;
4634;SDS011;2330;48.158;11.816;2023-09-18T13:50:10;4.33;;;1.17;;
4634;SDS011;2330;48.158;11.816;2023-09-18T13:52:36;1.90;;;1.10;;
4634;SDS011;2330;48.158;11.816;2023-09-18T13:55:03;3.53;;;1.23;;
4634;SDS011;2330;48.158;11.816;2023-09-18T13:57:35;1.63;;;1.20;;
4634;SDS011;2330;48.158;11.816;2023-09-18T14:00:02;7.37;;;1.60;;
4634;SDS011;2330;48.158;11.816;2023-09-18T14:02:33;5.33;;;1.67;;
4634;SDS011;2330;48.158;11.816;2023-09-18T14:05:00;2.37;;;1.60;;
4634;SDS011;2330;48.158;11.816;2023-09-18T14:07:27;3.07;;;1.47;;
4634;SDS011;2330;48.158;11.816;2023-09-18T14:09:54;3.60;;;1.73;;
4634;SDS011;2330;48.158;11.816;2023-09-18T14:12:21;3.20;;;1.70;;
4634;SDS011;2330;48.158;11.816;2023-09-18T14:14:48;3.70;;;1.80;;
4634;SDS011;2330;48.158;11.816;2023-09-18T14:17:15;4.50;;;1.80;;
4634;SDS011;2330;48.158;11.816;2023-09-18T14:19:44;5.53;;;2.20;;
4634;SDS011;2330;48.158;11.816;2023-09-18T14:22:10;3.60;;;1.30;;
4634;SDS011;2330;48.158;11.816;2023-09-18T14:24:37;4.13;;;1.53;;
4634;SDS011;2330;48.158;11.816;2023-09-18T14:27:04;2.40;;;1.40;;
4634;SDS011;2330;48.158;11.816;2023-09-18T14:29:33;2.10;;;1.10;;
4634;SDS011;2330;48.158;11.816;2023-09-18T14:32:00;4.07;;;1.17;;
4634;SDS011;2330;48.158;11.816;2023-09-18T14:34:27;6.23;;;1.30;;
4634;SDS011;2330;48.158;11.816;2023-09-18T14:36:54;4.47;;;1.27;;
4634;SDS011;2330;48.158;11.816;2023-09-18T14:39:21;3.33;;;1.23;;
4634;SDS011;2330;48.158;11.816;2023-09-18T14:41:48;13.43;;;1.40;;
4634;SDS011;2330;48.158;11.816;2023-09-18T14:44:15;2.10;;;1.20;;
4634;SDS011;2330;48.158;11.816;2023-09-18T14:46:42;3.47;;;1.50;;
4634;SDS011;2330;48.158;11.816;2023-09-18T14:49:10;4.47;;;1.20;;
4634;SDS011;2330;48.158;11.816;2023-09-18T14:51:37;2.80;;;1.30;;
4634;SDS011;2330;48.158;11.816;2023-09-18T14:54:06;2.30;;;1.33;;
4634;SDS011;2330;48.158;11.816;2023-09-18T14:56:34;1.97;;;1.30;;
4634;SDS011;2330;48.158;11.816;2023-09-18T14:59:05;3.27;;;1.40;;
4634;SDS011;2330;48.158;11.816;2023-09-18T15:01:34;1.90;;;1.33;;
4634;SDS011;2330;48.158;11.816;2023-09-18T15:04:01;4.80;;;1.47;;
4634;SDS011;2330;48.158;11.816;2023-09-18T15:06:32;3.27;;;1.10;;
4634;SDS011;2330;48.158;11.816;2023-09-18T15:08:59;1.80;;;1.20;;
4634;SDS011;2330;48.158;11.816;2023-09-18T15:11:26;3.83;;;1.60;;
4634;SDS011;2330;48.158;11.816;2023-09-18T15:13:52;1.90;;;1.50;;
4634;SDS011;2330;48.158;11.816;2023-09-18T15:16:19;2.00;;;1.17;;
4634;SDS011;2330;48.158;11.816;2023-09-18T15:18:46;3.03;;;1.47;;
4634;SDS011;2330;48.158;11.816;2023-09-18T15:21:13;2.20;;;1.10;;
4634;SDS011;2330;48.158;11.816;2023-09-18T15:23:40;2.30;;;1.40;;
4634;SDS011;2330;48.158;11.816;2023-09-18T15:26:07;1.80;;;1.13;;
4634;SDS011;2330;48.158;11.816;2023-09-18T15:28:34;3.20;;;1.67;;
4634;SDS011;2330;48.158;11.816;2023-09-18T15:31:01;4.43;;;1.43;;